Time;durP1;ratioP1;P1;durP2;ratioP2;P2;SDS_P1;SDS_P2;PMS_P1;PMS_P2;Temp;Humidity;BMP_temperature;BMP_pressure;BME280_temperature;BME280_humidity;BME280_pressure;Samples;Min_cycle;Max_cycle;Signal;HPM_P1;HPM_P2
2023/06/21 00:02:20;;;;;;;8.95;5.97;;;;;;;;;;5078951;28;20070;-84
2023/06/21 00:04:46;;;;;;;8.40;6.43;;;;;;;;;;5081501;28;20040;-82
2023/06/21 00:07:12;;;;;;;9.70;6.43;;;;;;;;;;5079798;28;20025;-82
2023/06/21 00:09:39;;;;;;;10.75;6.68;;;;;;;;;;5095256;28;20025;-86
2023/06/21 00:12:05;;;;;;;10.98;6.15;;;;;;;;;;5095000;28;20021;-86
2023/06/21 00:14:31;;;;;;;13.82;9.32;;;;;;;;;;5095044;28;20020;-84
2023/06/21 00:16:57;;;;;;;10.52;6.80;;;;;;;;;;5088234;28;20072;-83
2023/06/21 00:19:23;;;;;;;11.00;6.30;;;;;;;;;;5090980;28;20122;-82
2023/06/21 00:21:49;;;;;;;10.50;5.80;;;;;;;;;;5077982;28;20836;-86
2023/06/21 00:24:15;;;;;;;10.63;6.30;;;;;;;;;;5082740;28;20115;-83
2023/06/21 00:26:41;;;;;;;9.27;5.97;;;;;;;;;;5079941;28;20040;-82
2023/06/21 00:29:08;;;;;;;12.05;6.43;;;;;;;;;;5082760;28;20478;-83
2023/06/21 00:31:34;;;;;;;9.75;6.53;;;;;;;;;;5070393;28;20025;-81
2023/06/21 00:34:00;;;;;;;9.38;6.03;;;;;;;;;;5089411;28;20031;-80
2023/06/21 00:36:26;;;;;;;10.13;6.70;;;;;;;;;;5092220;28;20020;-84
2023/06/21 00:38:52;;;;;;;8.93;6.38;;;;;;;;;;5086770;28;20036;-80
2023/06/21 00:41:18;;;;;;;7.97;6.03;;;;;;;;;;5083264;28;21240;-84
2023/06/21 00:43:43;;;;;;;11.07;5.93;;;;;;;;;;5080727;28;20035;-84
2023/06/21 00:46:09;;;;;;;8.05;5.68;;;;;;;;;;5075850;28;20021;-81
2023/06/21 00:48:35;;;;;;;9.40;5.60;;;;;;;;;;5079567;28;20020;-84
2023/06/21 00:51:01;;;;;;;10.13;6.43;;;;;;;;;;5078241;28;20028;-82
2023/06/21 00:53:29;;;;;;;7.65;5.68;;;20.60;99.90;;;;;;5081187;28;20081;-82
2023/06/21 00:56:00;;;;;;;7.60;5.93;;;20.60;99.90;;;;;;5078490;28;20016;-84
2023/06/21 00:58:26;;;;;;;9.68;6.40;;;;;;;;;;5082050;28;20028;-85
2023/06/21 01:00:52;;;;;;;7.90;5.55;;;;;;;;;;5080973;28;20025;-84
2023/06/21 01:03:19;;;;;;;8.50;5.80;;;20.50;99.90;;;;;;5077663;28;20020;-83
2023/06/21 01:05:53;;;;;;;9.52;5.93;;;;;;;;;;5078038;28;20104;-82
2023/06/21 01:08:37;;;;;;;9.32;6.00;;;20.50;99.90;;;;;;5082226;28;20048;-84
2023/06/21 01:11:15;;;;;;;7.82;6.03;;;20.50;99.90;;;;;;5080345;28;20099;-85
2023/06/21 01:14:05;;;;;;;8.75;5.93;;;20.50;99.90;;;;;;5079323;28;20077;-84
2023/06/21 01:19:57;;;;;;;9.32;6.25;;;20.50;99.90;;;;;;5076411;28;20081;-85
2023/06/21 01:22:24;;;;;;;9.00;6.10;;;;;;;;;;5079127;28;20050;-85
2023/06/21 01:25:31;;;;;;;7.15;5.70;;;20.30;99.90;;;;;;5075085;28;20032;-84
2023/06/21 01:28:44;;;;;;;10.00;5.95;;;20.40;99.90;;;;;;5051882;28;20025;-84
2023/06/21 01:31:16;;;;;;;11.00;5.97;;;20.30;99.90;;;;;;5020195;28;20090;-85
2023/06/21 01:33:42;;;;;;;12.52;6.22;;;;;;;;;;5079450;28;20028;-86
2023/06/21 01:36:11;;;;;;;9.65;6.00;;;20.40;99.90;;;;;;5080512;28;20025;-85
2023/06/21 01:38:37;;;;;;;8.27;6.13;;;;;;;;;;5074272;28;20024;-84
2023/06/21 01:41:03;;;;;;;9.70;6.80;;;;;;;;;;5076550;28;20047;-84
2023/06/21 01:43:30;;;;;;;11.15;6.80;;;20.50;99.90;;;;;;5059579;28;20020;-84
2023/06/21 01:45:57;;;;;;;10.55;7.05;;;;;;;;;;5074585;28;20020;-85
2023/06/21 01:48:23;;;;;;;11.02;7.90;;;;;;;;;;5071868;28;20499;-82
2023/06/21 01:50:51;;;;;;;11.77;7.10;;;20.30;99.90;;;;;;5073511;28;20639;-85
2023/06/21 01:53:18;;;;;;;12.18;7.60;;;20.40;99.90;;;;;;5077093;28;20040;-84
2023/06/21 01:55:48;;;;;;;11.40;7.35;;;;;;;;;;5080064;28;20020;-86
2023/06/21 01:58:14;;;;;;;11.52;6.45;;;;;;;;;;5065311;28;20024;-84
2023/06/21 02:00:40;;;;;;;10.77;7.20;;;;;;;;;;5067780;28;20052;-84
2023/06/21 02:03:09;;;;;;;9.70;7.22;;;20.50;99.90;;;;;;5078147;28;20660;-84
2023/06/21 02:05:36;;;;;;;11.10;7.70;;;;;;;;;;5076103;28;20024;-85
2023/06/21 02:08:08;;;;;;;10.85;6.75;;;20.50;99.90;;;;;;5077152;28;20025;-85
2023/06/21 02:10:34;;;;;;;10.82;7.00;;;;;;;;;;5073711;28;20120;-82
2023/06/21 02:13:00;;;;;;;11.88;6.78;;;;;;;;;;5075282;28;20020;-84
2023/06/21 02:15:26;;;;;;;10.85;6.43;;;;;;;;;;5074546;28;20017;-85
2023/06/21 02:17:53;;;;;;;13.02;6.70;;;;;;;;;;5075585;28;20023;-84
2023/06/21 02:20:21;;;;;;;8.80;6.47;;;20.30;99.90;;;;;;5083980;28;20805;-87
2023/06/21 02:22:48;;;;;;;10.70;6.63;;;;;;;;;;5071446;28;20067;-85
2023/06/21 02:25:15;;;;;;;9.68;6.65;;;20.30;99.90;;;;;;5079392;28;20028;-83
2023/06/21 02:27:41;;;;;;;8.27;6.22;;;;;;;;;;5072229;28;20031;-86
2023/06/21 02:30:08;;;;;;;11.98;6.93;;;;;;;;;;5058501;28;20133;-84
2023/06/21 02:32:34;;;;;;;11.20;5.82;;;;;;;;;;5071943;28;20020;-85
2023/06/21 02:35:00;;;;;;;9.63;6.13;;;;;;;;;;5067713;28;20024;-85
2023/06/21 02:37:29;;;;;;;9.38;6.78;;;20.00;99.90;;;;;;5076784;28;20021;-86
2023/06/21 02:39:58;;;;;;;9.30;6.57;;;;;;;;;;5072223;28;20553;-85
2023/06/21 02:42:27;;;;;;;10.30;6.20;;;20.10;99.90;;;;;;5072766;28;20138;-85
2023/06/21 02:44:53;;;;;;;9.90;6.38;;;;;;;;;;5075640;28;20024;-83
2023/06/21 02:47:19;;;;;;;7.78;6.25;;;;;;;;;;5074426;28;20021;-85
2023/06/21 02:49:45;;;;;;;9.32;7.00;;;;;;;;;;5074778;28;20021;-86
2023/06/21 02:52:11;;;;;;;10.77;6.80;;;;;;;;;;5057480;28;20642;-83
2023/06/21 02:54:37;;;;;;;10.23;6.10;;;;;;;;;;5074975;28;20020;-83
2023/06/21 02:57:03;;;;;;;9.02;6.22;;;20.20;99.90;;;;;;5073287;28;20033;-83
2023/06/21 02:59:29;;;;;;;12.52;6.85;;;;;;;;;;5075287;28;20126;-83
2023/06/21 03:01:56;;;;;;;8.63;6.38;;;;;;;;;;5074026;28;20013;-83
2023/06/21 03:04:22;;;;;;;12.20;6.43;;;;;;;;;;5077736;28;20024;-85
2023/06/21 03:06:48;;;;;;;9.43;6.10;;;;;;;;;;5071531;22;20114;-84
2023/06/21 03:09:14;;;;;;;9.02;5.60;;;;;;;;;;5092569;28;20071;-87
2023/06/21 03:11:40;;;;;;;8.77;5.93;;;;;;;;;;5075363;28;20024;-88
2023/06/21 03:14:06;;;;;;;10.95;6.50;;;;;;;;;;5089458;28;20004;-86
2023/06/21 03:16:32;;;;;;;8.82;5.82;;;;;;;;;;5086625;28;20036;-84
2023/06/21 03:18:58;;;;;;;11.27;6.32;;;;;;;;;;5072083;28;20027;-85
2023/06/21 03:21:24;;;;;;;9.32;5.50;;;;;;;;;;5050415;28;20589;-84
2023/06/21 03:23:50;;;;;;;10.68;6.25;;;;;;;;;;5070130;28;20025;-85
2023/06/21 03:26:16;;;;;;;8.13;5.65;;;;;;;;;;5069497;28;20024;-84
2023/06/21 03:28:42;;;;;;;8.20;5.90;;;;;;;;;;5055270;28;20051;-87
2023/06/21 03:31:08;;;;;;;7.60;5.95;;;;;;;;;;5050015;28;20020;-85
2023/06/21 03:33:34;;;;;;;22.92;6.53;;;;;;;;;;5075636;28;20181;-81
2023/06/21 03:36:00;;;;;;;8.50;6.40;;;;;;;;;;5071946;28;20016;-83
2023/06/21 03:38:26;;;;;;;10.02;6.40;;;;;;;;;;5072713;28;20028;-85
2023/06/21 03:40:52;;;;;;;9.75;5.78;;;;;;;;;;5067997;28;20695;-83
2023/06/21 03:43:18;;;;;;;9.95;6.28;;;;;;;;;;5070992;28;20027;-83
2023/06/21 03:45:45;;;;;;;9.35;6.43;;;;;;;;;;5054825;28;20036;-84
2023/06/21 03:48:11;;;;;;;9.55;6.45;;;;;;;;;;5059426;28;20064;-86
2023/06/21 03:50:37;;;;;;;10.18;6.53;;;;;;;;;;5073023;28;20020;-86
2023/06/21 03:53:03;;;;;;;11.52;6.45;;;;;;;;;;5051224;28;20090;-83
2023/06/21 03:55:29;;;;;;;10.93;6.80;;;;;;;;;;5066404;28;20599;-85
2023/06/21 03:57:55;;;;;;;8.45;6.40;;;;;;;;;;5054444;28;20032;-85
2023/06/21 04:00:21;;;;;;;14.77;6.78;;;;;;;;;;5066518;28;20036;-86
2023/06/21 04:02:47;;;;;;;13.18;6.82;;;;;;;;;;5069067;28;20032;-86
2023/06/21 04:05:13;;;;;;;16.27;6.93;;;;;;;;;;5071182;28;20052;-84
2023/06/21 04:07:40;;;;;;;12.90;7.07;;;;;;;;;;5064670;28;20158;-86
2023/06/21 04:10:06;;;;;;;10.18;6.22;;;20.30;99.90;;;;;;5065842;28;20135;-84
2023/06/21 04:12:32;;;;;;;10.00;6.63;;;;;;;;;;5045871;28;20043;-84
2023/06/21 04:15:03;;;;;;;10.35;6.82;;;;;;;;;;5053780;28;20390;-86
2023/06/21 04:17:29;;;;;;;9.00;6.22;;;;;;;;;;5071340;28;20035;-83
2023/06/21 04:19:56;;;;;;;10.95;6.90;;;;;;;;;;5056378;28;20036;-86
2023/06/21 04:22:23;;;;;;;9.80;6.72;;;;;;;;;;5055859;28;20036;-83
2023/06/21 04:24:49;;;;;;;11.15;6.90;;;;;;;;;;5054057;28;20342;-85
2023/06/21 04:27:15;;;;;;;11.25;6.82;;;;;;;;;;5053723;28;20052;-88
2023/06/21 04:29:41;;;;;;;10.02;6.60;;;;;;;;;;5072903;28;20033;-85
2023/06/21 04:32:10;;;;;;;10.23;6.25;;;20.40;99.90;;;;;;5071817;28;20102;-87
2023/06/21 04:34:36;;;;;;;8.53;5.83;;;;;;;;;;5051903;28;20031;-86
2023/06/21 04:37:06;;;;;;;14.07;6.30;;;;;;;;;;5056539;28;20290;-85
2023/06/21 04:39:32;;;;;;;8.23;5.93;;;20.50;99.90;;;;;;5074202;28;20021;-84
2023/06/21 04:41:58;;;;;;;10.00;6.53;;;;;;;;;;5055920;28;20379;-85
2023/06/21 04:44:27;;;;;;;9.70;6.10;;;20.50;99.90;;;;;;5068233;28;20456;-83
2023/06/21 04:46:53;;;;;;;10.23;6.60;;;;;;;;;;5046063;28;20079;-85
2023/06/21 04:49:19;;;;;;;9.52;6.15;;;;;;;;;;5071770;28;20510;-82
2023/06/21 04:51:45;;;;;;;9.45;6.57;;;;;;;;;;5072719;28;20063;-84
2023/06/21 04:54:12;;;;;;;12.73;6.35;;;;;;;;;;5069995;28;20020;-84
2023/06/21 04:56:38;;;;;;;10.00;6.55;;;;;;;;;;5069961;28;20028;-85
2023/06/21 04:59:04;;;;;;;11.57;6.82;;;;;;;;;;5048363;28;20036;-84
2023/06/21 05:01:32;;;;;;;10.00;5.95;;;20.60;99.90;;;;;;5067878;28;22740;-84
2023/06/21 05:03:58;;;;;;;11.43;6.72;;;;;;;;;;5071402;28;20021;-82
2023/06/21 05:06:25;;;;;;;9.15;5.80;;;;;;;;;;5065387;28;20227;-85
2023/06/21 05:08:51;;;;;;;12.63;6.25;;;;;;;;;;5061091;28;20112;-86
2023/06/21 05:11:18;;;;;;;8.68;6.50;;;;;;;;;;5066692;28;20088;-85
2023/06/21 05:13:44;;;;;;;12.98;6.07;;;;;;;;;;5059042;28;20121;-84
2023/06/21 05:16:11;;;;;;;11.25;6.22;;;;;;;;;;5061965;28;20080;-86
2023/06/21 05:18:38;;;;;;;12.13;6.38;;;;;;;;;;5059982;28;20047;-85
2023/06/21 05:21:04;;;;;;;8.82;6.07;;;;;;;;;;5053476;28;20065;-88
2023/06/21 05:23:30;;;;;;;9.60;6.30;;;;;;;;;;5051405;28;20121;-85
2023/06/21 05:25:56;;;;;;;9.30;6.40;;;;;;;;;;5052940;28;20084;-86
2023/06/21 05:28:22;;;;;;;8.65;6.05;;;;;;;;;;5051878;28;20123;-86
2023/06/21 05:30:48;;;;;;;11.02;6.35;;;;;;;;;;5046251;28;20063;-85
2023/06/21 05:33:14;;;;;;;11.07;6.35;;;;;;;;;;5068229;28;20517;-85
2023/06/21 05:35:41;;;;;;;10.18;5.63;;;;;;;;;;5048273;28;20037;-83
2023/06/21 05:38:08;;;;;;;16.17;6.35;;;;;;;;;;5063973;28;20032;-87
2023/06/21 05:40:34;;;;;;;9.40;5.47;;;;;;;;;;5064451;28;20123;-83
2023/06/21 05:43:04;;;;;;;9.32;5.63;;;;;;;;;;5046579;28;20028;-86
2023/06/21 05:45:30;;;;;;;7.97;5.72;;;;;;;;;;5063839;28;20048;-84
2023/06/21 05:47:58;;;;;;;10.73;5.70;;;;;;;;;;5068381;28;20029;-86
2023/06/21 05:50:30;;;;;;;8.80;5.30;;;;;;;;;;5072246;28;20025;-86
2023/06/21 05:52:59;;;;;;;8.00;5.78;;;;;;;;;;5067458;28;20026;-84
2023/06/21 05:55:25;;;;;;;14.02;6.38;;;;;;;;;;5068575;28;20029;-84
2023/06/21 05:57:52;;;;;;;8.40;5.65;;;;;;;;;;5055284;28;20204;-88
2023/06/21 06:00:18;;;;;;;8.88;5.78;;;;;;;;;;5075536;28;20029;-88
2023/06/21 06:02:45;;;;;;;9.88;6.13;;;21.90;99.90;;;;;;5068533;28;20086;-85
2023/06/21 06:05:11;;;;;;;8.38;5.10;;;;;;;;;;5063178;28;20028;-85
2023/06/21 06:07:37;;;;;;;9.43;5.50;;;;;;;;;;5045091;28;20025;-85
2023/06/21 06:10:04;;;;;;;10.52;6.13;;;;;;;;;;5068775;28;20039;-85
2023/06/21 06:12:30;;;;;;;9.48;5.68;;;;;;;;;;5051030;28;20020;-84
2023/06/21 06:14:56;;;;;;;12.02;6.30;;;;;;;;;;5051347;28;20024;-85
2023/06/21 06:17:22;;;;;;;9.90;5.85;;;;;;;;;;5064685;28;20020;-82
2023/06/21 06:19:48;;;;;;;7.85;5.80;;;;;;;;;;5046556;28;20032;-86
2023/06/21 06:22:14;;;;;;;12.32;5.93;;;;;;;;;;5066267;28;20036;-84
2023/06/21 06:24:40;;;;;;;12.80;6.45;;;;;;;;;;5057738;28;20020;-85
2023/06/21 06:27:06;;;;;;;10.13;6.45;;;;;;;;;;5070520;28;20028;-85
2023/06/21 06:29:32;;;;;;;10.45;6.13;;;;;;;;;;5073105;28;20025;-88
2023/06/21 06:31:58;;;;;;;8.55;5.88;;;;;;;;;;5062372;28;20047;-87
2023/06/21 06:34:24;;;;;;;10.40;6.20;;;;;;;;;;5056115;28;20230;-86
2023/06/21 06:36:50;;;;;;;10.23;5.85;;;;;;;;;;5055396;28;20028;-85
2023/06/21 06:39:16;;;;;;;8.82;6.32;;;;;;;;;;5075032;28;20059;-87
2023/06/21 06:41:42;;;;;;;9.45;6.30;;;;;;;;;;5070901;28;20086;-87
2023/06/21 06:44:08;;;;;;;8.25;6.60;;;;;;;;;;5068876;28;20034;-86
2023/06/21 06:46:35;;;;;;;8.65;6.18;;;;;;;;;;5064486;28;20261;-88
2023/06/21 06:49:01;;;;;;;8.27;5.75;;;;;;;;;;5085348;28;20023;-85
2023/06/21 06:51:27;;;;;;;11.10;6.25;;;;;;;;;;5081375;28;20112;-89
2023/06/21 06:53:53;;;;;;;7.40;5.68;;;;;;;;;;5069727;28;20307;-86
2023/06/21 06:56:19;;;;;;;11.93;6.35;;;;;;;;;;5081731;28;20032;-90
2023/06/21 06:58:45;;;;;;;9.80;6.03;;;;;;;;;;5079897;28;20486;-89
2023/06/21 07:01:11;;;;;;;8.65;6.28;;;;;;;;;;5056110;28;20123;-91
2023/06/21 07:03:38;;;;;;;9.20;6.28;;;;;;;;;;5054239;28;20058;-89
2023/06/21 07:06:04;;;;;;;8.95;6.15;;;;;;;;;;5054605;28;20032;-88
2023/06/21 07:08:30;;;;;;;11.45;5.93;;;;;;;;;;5062706;28;20024;-86
2023/06/21 07:10:56;;;;;;;9.70;6.20;;;;;;;;;;5074141;28;21302;-87
2023/06/21 07:13:23;;;;;;;9.60;6.20;;;;;;;;;;5071987;28;20118;-90
2023/06/21 07:15:50;;;;;;;10.77;6.65;;;;;;;;;;5056953;28;20052;-90
2023/06/21 07:18:16;;;;;;;7.70;5.82;;;;;;;;;;5050969;28;20054;-90
2023/06/21 07:20:42;;;;;;;7.72;6.07;;;;;;;;;;5051942;28;20040;-90
2023/06/21 07:23:08;;;;;;;9.85;6.15;;;;;;;;;;5071006;28;20082;-85
2023/06/21 07:25:34;;;;;;;7.68;5.07;;;;;;;;;;5067814;28;20039;-88
2023/06/21 07:28:00;;;;;;;6.72;5.15;;;;;;;;;;5076905;28;20048;-88
2023/06/21 07:30:27;;;;;;;9.35;5.88;;;;;;;;;;5059605;28;20031;-89
2023/06/21 07:32:56;;;;;;;7.40;5.40;;;;;;;;;;5050548;28;20371;-86
2023/06/21 07:35:22;;;;;;;8.67;5.07;;;;;;;;;;5048218;28;20490;-86
2023/06/21 07:37:48;;;;;;;8.32;5.22;;;;;;;;;;5062964;28;20031;-86
2023/06/21 07:40:14;;;;;;;9.27;5.80;;;;;;;;;;5062473;28;20081;-88
2023/06/21 07:42:40;;;;;;;9.68;5.07;;;;;;;;;;5066336;28;20040;-88
2023/06/21 07:45:06;;;;;;;6.03;4.53;;;;;;;;;;5063632;28;20021;-87
2023/06/21 07:47:33;;;;;;;7.90;4.90;;;;;;;;;;5067188;28;20490;-89
2023/06/21 07:49:59;;;;;;;6.32;4.88;;;;;;;;;;5064811;28;20491;-86
2023/06/21 07:52:25;;;;;;;9.20;4.90;;;;;;;;;;5067267;28;20499;-87
2023/06/21 07:54:51;;;;;;;10.02;6.03;;;;;;;;;;5067196;28;20549;-88
2023/06/21 07:57:18;;;;;;;7.75;4.82;;;;;;;;;;5044873;28;20035;-91
2023/06/21 07:59:44;;;;;;;7.72;4.50;;;;;;;;;;5068323;28;20035;-89
2023/06/21 08:02:13;;;;;;;7.22;4.78;;;;;;;;;;5070580;28;20049;-90
2023/06/21 08:04:39;;;;;;;9.25;5.10;;;;;;;;;;5050423;28;20025;-87
2023/06/21 08:07:05;;;;;;;6.38;4.60;;;;;;;;;;5071508;28;20884;-89
2023/06/21 08:09:31;;;;;;;6.80;5.25;;;;;;;;;;5066528;28;20385;-89
2023/06/21 08:11:59;;;;;;;7.53;4.60;;;25.50;99.90;;;;;;5069682;28;20399;-87
2023/06/21 08:14:25;;;;;;;9.32;4.88;;;;;;;;;;5068420;28;20403;-90
2023/06/21 08:16:51;;;;;;;5.93;4.05;;;;;;;;;;5070999;28;20070;-88
2023/06/21 08:19:17;;;;;;;5.18;4.10;;;;;;;;;;5067928;28;20028;-88
2023/06/21 08:21:44;;;;;;;7.00;4.38;;;;;;;;;;5067962;28;20741;-89
2023/06/21 08:24:10;;;;;;;5.70;4.22;;;;;;;;;;5051376;28;20078;-90
2023/06/21 08:26:36;;;;;;;5.88;4.40;;;;;;;;;;5076158;28;20025;-89
2023/06/21 08:29:02;;;;;;;7.07;4.30;;;;;;;;;;5057308;28;20027;-90
2023/06/21 08:31:28;;;;;;;7.85;4.43;;;;;;;;;;5073861;28;20051;-90
2023/06/21 08:33:54;;;;;;;7.70;4.13;;;;;;;;;;5068983;28;20025;-90
2023/06/21 08:36:20;;;;;;;7.45;4.70;;;;;;;;;;5057235;28;20020;-90
2023/06/21 08:38:46;;;;;;;7.05;4.53;;;;;;;;;;5070243;28;20023;-89
2023/06/21 08:41:12;;;;;;;7.47;4.32;;;;;;;;;;5070268;28;20119;-89
2023/06/21 08:43:38;;;;;;;6.47;5.05;;;;;;;;;;5072818;28;20021;-90
2023/06/21 08:46:06;;;;;;;8.20;5.00;;;;;;;;;;5057533;28;20085;-89
2023/06/21 08:48:32;;;;;;;6.07;4.68;;;;;;;;;;5059637;28;20035;-89
2023/06/21 08:50:59;;;;;;;6.45;4.38;;;26.20;99.90;;;;;;5076716;28;20032;-87
2023/06/21 08:53:39;;;;;;;6.60;4.40;;;;;;;;;;5057261;28;20313;-88
2023/06/21 08:56:06;;;;;;;7.20;4.82;;;26.00;99.90;;;;;;5074815;28;20032;-88
2023/06/21 08:58:45;;;;;;;6.68;4.72;;;26.00;99.90;;;;;;5081396;28;20031;-88
2023/06/21 09:01:11;;;;;;;6.95;4.72;;;;;;;;;;5080189;28;20139;-87
2023/06/21 09:03:41;;;;;;;6.43;4.78;;;;;;;;;;5088377;28;20029;-88
2023/06/21 09:06:15;;;;;;;8.57;5.15;;;26.10;99.90;;;;;;5086578;28;20037;-88
2023/06/21 09:08:41;;;;;;;7.95;5.15;;;;;;;;;;5079608;28;20051;-85
2023/06/21 09:11:11;;;;;;;8.05;5.22;;;;;;;;;;5088785;28;20051;-89
2023/06/21 09:13:37;;;;;;;7.82;5.32;;;;;;;;;;5093136;28;20013;-86
2023/06/21 09:16:03;;;;;;;6.50;4.75;;;;;;;;;;5072388;28;20042;-87
2023/06/21 09:18:35;;;;;;;8.90;4.50;;;;;;;;;;5074554;28;20029;-86
2023/06/21 09:21:03;;;;;;;8.15;4.47;;;;;;;;;;5052472;28;20036;-86
2023/06/21 09:23:29;;;;;;;5.30;4.20;;;;;;;;;;5071192;28;20029;-87
2023/06/21 09:25:55;;;;;;;7.30;4.63;;;;;;;;;;5070879;28;20036;-89
2023/06/21 09:28:22;;;;;;;9.75;5.25;;;;;;;;;;5058069;28;20040;-88
2023/06/21 09:30:48;;;;;;;6.38;4.47;;;;;;;;;;5077929;28;20020;-88
2023/06/21 09:33:15;;;;;;;8.50;5.35;;;;;;;;;;5073877;28;20025;-88
2023/06/21 09:35:41;;;;;;;8.45;5.15;;;;;;;;;;5056824;28;20058;-90
2023/06/21 09:38:33;;;;;;;6.97;4.90;;;;;;;;;;5076993;28;20063;-88
2023/06/21 09:41:01;;;;;;;8.82;4.97;;;;;;;;;;5073799;28;20097;-90
2023/06/21 09:43:27;;;;;;;9.38;5.55;;;;;;;;;;5055938;28;20056;-86
2023/06/21 09:46:03;;;;;;;9.75;6.00;;;;;;;;;;5072074;28;20048;-87
2023/06/21 09:48:31;;;;;;;7.75;5.05;;;;;;;;;;5058635;28;20033;-88
2023/06/21 09:50:58;;;;;;;8.73;5.18;;;;;;;;;;5069750;28;20107;-88
2023/06/21 09:53:24;;;;;;;8.65;4.97;;;;;;;;;;5071360;28;20028;-86
2023/06/21 09:55:50;;;;;;;7.43;4.97;;;;;;;;;;5069583;28;20397;-88
2023/06/21 09:58:16;;;;;;;8.30;4.90;;;;;;;;;;5068634;28;20047;-90
2023/06/21 10:00:43;;;;;;;8.02;4.90;;;27.40;99.90;;;;;;5070594;28;20026;-85
2023/06/21 10:03:09;;;;;;;7.72;5.00;;;;;;;;;;5072276;28;20336;-88
2023/06/21 10:05:35;;;;;;;9.02;5.18;;;;;;;;;;5071540;28;20036;-87
2023/06/21 10:08:04;;;;;;;8.18;5.10;;;;;;;;;;5054171;28;20043;-88
2023/06/21 10:10:33;;;;;;;6.53;4.60;;;;;;;;;;5072550;28;20028;-86
2023/06/21 10:12:59;;;;;;;6.78;5.13;;;;;;;;;;5035898;28;20037;-86
2023/06/21 10:15:28;;;;;;;7.00;5.43;;;;;;;;;;5071374;28;20029;-85
2023/06/21 10:17:56;;;;;;;6.80;4.95;;;27.80;99.50;;;;;;5069577;28;20101;-85
2023/06/21 10:20:22;;;;;;;5.90;4.50;;;;;;;;;;5068571;28;20032;-87
2023/06/21 10:22:51;;;;;;;7.10;4.35;;;;;;;;;;5072062;28;20063;-86
2023/06/21 10:25:20;;;;;;;8.40;4.57;;;27.90;99.20;;;;;;5051219;28;20682;-88
2023/06/21 10:27:48;;;;;;;7.55;5.18;;;27.80;99.10;;;;;;5071637;28;20033;-87
2023/06/21 10:30:19;;;;;;;7.53;5.13;;;;;;;;;;5065926;28;20036;-87
2023/06/21 10:32:47;;;;;;;8.85;4.82;;;28.20;98.80;;;;;;5069096;28;20028;-86
2023/06/21 10:35:19;;;;;;;6.30;3.88;;;28.20;98.70;;;;;;5067959;28;20020;-87
2023/06/21 10:38:09;;;;;;;6.40;4.28;;;28.40;98.60;;;;;;5071206;28;20028;-87
2023/06/21 10:40:35;;;;;;;6.05;4.60;;;;;;;;;;5072350;28;20044;-89
2023/06/21 10:43:02;;;;;;;9.68;4.80;;;28.30;98.10;;;;;;5068514;28;20029;-86
2023/06/21 10:45:30;;;;;;;8.38;4.70;;;;;;;;;;5074412;28;20390;-86
2023/06/21 10:47:57;;;;;;;8.77;4.90;;;;;;;;;;5071630;28;20130;-87
2023/06/21 10:50:23;;;;;;;8.23;5.03;;;;;;;;;;5054758;28;20028;-88
2023/06/21 10:52:53;;;;;;;6.50;4.45;;;;;;;;;;5070555;28;20024;-89
2023/06/21 10:55:21;;;;;;;7.22;4.88;;;;;;;;;;5069418;28;20032;-86
2023/06/21 10:57:49;;;;;;;6.10;4.13;;;;;;;;;;5074336;28;20490;-88
2023/06/21 11:00:16;;;;;;;7.60;4.43;;;;;;;;;;5058245;28;20410;-88
2023/06/21 11:02:42;;;;;;;6.60;4.60;;;;;;;;;;5077852;28;20052;-87
2023/06/21 11:05:17;;;;;;;8.00;4.68;;;;;;;;;;5056368;28;20035;-87
2023/06/21 11:08:04;;;;;;;9.25;5.15;;;28.40;97.10;;;;;;5070001;28;20089;-87
2023/06/21 11:10:50;;;;;;;6.32;4.30;;;28.60;97.00;;;;;;5057608;28;20505;-86
2023/06/21 11:13:17;;;;;;;7.40;4.65;;;28.70;97.20;;;;;;5071285;28;20033;-86
2023/06/21 11:15:46;;;;;;;6.32;4.68;;;28.80;97.30;;;;;;5072702;28;20025;-87
2023/06/21 11:18:19;;;;;;;11.38;5.22;;;29.00;96.80;;;;;;5073948;28;20490;-86
2023/06/21 11:20:49;;;;;;;6.25;4.53;;;29.10;96.50;;;;;;5052722;28;20067;-86
2023/06/21 11:23:19;;;;;;;7.25;4.28;;;29.10;96.20;;;;;;5071168;28;20056;-86
2023/06/21 11:25:53;;;;;;;7.20;4.10;;;29.20;95.80;;;;;;5053315;28;20035;-86
2023/06/21 11:28:19;;;;;;;7.07;4.50;;;;;;;;;;5055925;28;20024;-84
2023/06/21 11:31:03;;;;;;;7.10;4.25;;;29.20;96.10;;;;;;5069533;28;20377;-86
2023/06/21 11:33:30;;;;;;;7.78;4.45;;;29.40;95.90;;;;;;5066032;28;20024;-86
2023/06/21 11:36:06;;;;;;;6.18;4.50;;;29.30;95.90;;;;;;5071716;28;20109;-86
2023/06/21 11:38:33;;;;;;;6.00;3.85;;;29.30;95.50;;;;;;5069260;28;20028;-87
2023/06/21 11:40:59;;;;;;;6.35;4.07;;;;;;;;;;5066059;28;20407;-87
2023/06/21 11:43:25;;;;;;;7.03;3.72;;;;;;;;;;5061449;28;20128;-86
2023/06/21 11:46:02;;;;;;;6.45;4.07;;;29.50;94.80;;;;;;5053621;28;20417;-87
2023/06/21 11:48:29;;;;;;;5.88;4.10;;;;;;;;;;5049298;28;20029;-88
2023/06/21 11:50:56;;;;;;;5.75;4.03;;;29.50;95.00;;;;;;5052638;28;20127;-85
2023/06/21 11:53:30;;;;;;;6.25;3.97;;;29.60;94.60;;;;;;5065377;28;20024;-86
2023/06/21 11:55:57;;;;;;;5.75;4.07;;;;;;;;;;5047903;28;20508;-85
2023/06/21 11:58:25;;;;;;;7.13;3.53;;;29.80;94.30;;;;;;5065465;28;20032;-88
2023/06/21 12:00:52;;;;;;;5.57;3.90;;;;;;;;;;5051415;28;20101;-87
2023/06/21 12:03:21;;;;;;;5.68;3.88;;;29.30;94.60;;;;;;5075993;28;20005;-88
2023/06/21 12:05:58;;;;;;;5.88;3.90;;;29.30;94.20;;;;;;5064978;28;20025;-88
2023/06/21 12:08:28;;;;;;;7.35;3.90;;;;;;;;;;5087199;28;20032;-87
2023/06/21 12:11:00;;;;;;;4.88;3.65;;;29.20;93.70;;;;;;5071032;28;20031;-86
2023/06/21 12:13:27;;;;;;;5.70;3.67;;;29.40;93.60;;;;;;5067851;28;20096;-88
2023/06/21 12:15:53;;;;;;;5.40;3.95;;;;;;;;;;5081933;28;20704;-87
2023/06/21 12:18:19;;;;;;;6.63;3.85;;;;;;;;;;5089940;28;20020;-87
2023/06/21 12:20:45;;;;;;;9.60;4.60;;;;;;;;;;5068565;28;20039;-86
2023/06/21 12:23:12;;;;;;;6.82;4.30;;;;;;;;;;5068697;28;20101;-87
2023/06/21 12:25:45;;;;;;;5.90;3.95;;;;;;;;;;5070793;28;20110;-87
2023/06/21 12:28:14;;;;;;;6.18;3.83;;;;;;;;;;5077499;28;20092;-87
2023/06/21 12:30:47;;;;;;;5.22;4.05;;;;;;;;;;5070477;28;20074;-88
2023/06/21 12:33:13;;;;;;;6.40;3.72;;;;;;;;;;5084824;28;20028;-87
2023/06/21 12:35:39;;;;;;;7.28;4.15;;;;;;;;;;5089819;28;20040;-87
2023/06/21 12:38:17;;;;;;;5.65;3.70;;;30.00;92.70;;;;;;5086285;28;20067;-88
2023/06/21 12:40:54;;;;;;;5.00;3.60;;;30.30;92.70;;;;;;5070634;28;20040;-88
2023/06/21 12:43:50;;;;;;;6.50;3.67;;;30.40;92.10;;;;;;5086178;28;20033;-86
2023/06/21 12:46:16;;;;;;;7.55;4.28;;;;;;;;;;5059371;28;20049;-87
2023/06/21 12:48:58;;;;;;;6.32;4.35;;;30.20;92.10;;;;;;5047673;28;20402;-85
2023/06/21 12:51:30;;;;;;;5.22;3.53;;;30.20;91.70;;;;;;5068252;28;20029;-86
2023/06/21 12:53:57;;;;;;;4.40;3.50;;;;;;;;;;5048825;28;20036;-86
2023/06/21 12:56:27;;;;;;;4.55;3.38;;;;;;;;;;5048324;28;21039;-85
2023/06/21 12:58:53;;;;;;;6.68;3.78;;;;;;;;;;5054040;28;20028;-87
2023/06/21 13:01:25;;;;;;;4.60;3.58;;;;;;;;;;5066194;28;20844;-87
2023/06/21 13:03:53;;;;;;;5.13;3.40;;;;;;;;;;5067400;28;20027;-87
2023/06/21 13:06:22;;;;;;;6.32;3.33;;;;;;;;;;5049976;28;20051;-88
2023/06/21 13:08:48;;;;;;;;;;;29.50;91.10;;;;;;5056457;28;20687;-86
2023/06/21 13:11:14;;;;;;;4.60;3.00;;;;;;;;;;5069626;28;20011;-86
2023/06/21 13:13:50;;;;;;;5.57;3.70;;;;;;;;;;5068581;28;20036;-87
2023/06/21 13:19:07;;;;;;;4.97;3.67;;;;;;;;;;5043113;28;20025;-86
2023/06/21 13:21:34;;;;;;;6.53;4.03;;;;;;;;;;5051410;28;20028;-85
2023/06/21 13:24:03;;;;;;;5.63;3.33;;;;;;;;;;5065517;28;20243;-86
2023/06/21 13:26:32;;;;;;;8.02;3.53;;;;;;;;;;5066928;28;20032;-85
2023/06/21 13:29:00;;;;;;;6.40;3.10;;;;;;;;;;5066421;28;20033;-84
2023/06/21 13:31:26;;;;;;;5.70;3.50;;;;;;;;;;5049952;28;20020;-86
2023/06/21 13:33:55;;;;;;;5.10;3.40;;;;;;;;;;5046200;28;20037;-85
2023/06/21 13:36:22;;;;;;;5.85;3.42;;;30.70;90.40;;;;;;5053198;28;20021;-87
2023/06/21 13:38:48;;;;;;;4.28;3.40;;;;;;;;;;5067630;28;20031;-87
2023/06/21 13:41:14;;;;;;;5.60;3.13;;;;;;;;;;5062484;28;20024;-85
2023/06/21 13:43:40;;;;;;;5.63;4.00;;;;;;;;;;5070551;28;20477;-84
2023/06/21 13:46:06;;;;;;;6.00;3.83;;;;;;;;;;5037095;28;20040;-83
2023/06/21 13:48:32;;;;;;;4.35;3.38;;;;;;;;;;5051923;28;20022;-85
2023/06/21 13:50:58;;;;;;;6.30;3.50;;;;;;;;;;5073197;28;20088;-85
2023/06/21 13:53:25;;;;;;;6.28;3.42;;;;;;;;;;5052401;28;20028;-86
2023/06/21 13:55:51;;;;;;;5.28;3.63;;;;;;;;;;5068674;28;20020;-85
2023/06/21 13:58:18;;;;;;;5.65;3.78;;;;;;;;;;5071478;28;20021;-85
2023/06/21 14:00:44;;;;;;;6.90;4.35;;;;;;;;;;5045519;28;20024;-85
2023/06/21 14:03:10;;;;;;;5.63;3.40;;;;;;;;;;5070580;28;20041;-87
2023/06/21 14:05:36;;;;;;;4.50;3.08;;;;;;;;;;5070031;28;20024;-85
2023/06/21 14:08:03;;;;;;;5.53;3.38;;;;;;;;;;5071752;28;20028;-85
2023/06/21 14:10:31;;;;;;;6.05;3.45;;;;;;;;;;5056152;28;20029;-84
2023/06/21 14:12:57;;;;;;;4.75;3.13;;;;;;;;;;5067588;28;20033;-85
2023/06/21 14:15:23;;;;;;;5.80;3.17;;;;;;;;;;5069992;28;20108;-85
2023/06/21 14:17:49;;;;;;;4.88;3.40;;;;;;;;;;5070154;28;20031;-84
2023/06/21 14:20:15;;;;;;;5.53;3.72;;;;;;;;;;5068225;28;20055;-86
2023/06/21 14:22:41;;;;;;;5.53;3.28;;;;;;;;;;5052218;28;20020;-85
2023/06/21 14:25:08;;;;;;;5.90;3.50;;;;;;;;;;5072316;28;20020;-85
2023/06/21 14:27:34;;;;;;;4.80;3.67;;;;;;;;;;5070117;28;20513;-84